createdAt,value
2023-05-02T00:00:49.896Z,4.78
2023-05-02T00:05:43.460Z,5.22
2023-05-02T00:10:40.025Z,5.32
2023-05-02T00:15:34.065Z,6.00
2023-05-02T00:20:27.598Z,5.40
2023-05-02T00:25:21.727Z,5.85
2023-05-02T00:30:17.226Z,5.93
2023-05-02T00:35:10.176Z,5.25
2023-05-02T00:40:05.627Z,5.18
2023-05-02T00:44:58.449Z,5.18
2023-05-02T00:49:52.219Z,5.25
2023-05-02T00:54:45.946Z,5.50
2023-05-02T00:59:38.548Z,5.00
2023-05-02T01:04:40.000Z,5.53
2023-05-02T01:09:50.564Z,6.18
2023-05-02T01:14:47.035Z,5.57
2023-05-02T01:19:45.847Z,5.88
2023-05-02T01:24:57.550Z,5.32
2023-05-02T01:29:51.817Z,5.35
2023-05-02T01:34:46.677Z,5.40
2023-05-02T01:39:40.832Z,5.95
2023-05-02T01:44:37.025Z,5.47
2023-05-02T01:49:32.299Z,5.72
2023-05-02T01:54:25.919Z,6.00
2023-05-02T01:59:20.350Z,5.32
2023-05-02T02:04:17.643Z,5.00
2023-05-02T02:09:10.300Z,5.32
2023-05-02T02:14:07.752Z,4.80
2023-05-02T02:19:06.937Z,4.82
2023-05-02T02:24:03.736Z,4.53
2023-05-02T02:28:56.976Z,4.60
2023-05-02T02:33:49.744Z,4.38
2023-05-02T02:38:44.131Z,4.50
2023-05-02T02:43:58.238Z,4.32
2023-05-02T02:49:03.439Z,4.55
2023-05-02T02:54:05.849Z,4.07
2023-05-02T02:59:20.243Z,4.28
2023-05-02T03:04:14.803Z,4.90
2023-05-02T03:09:07.992Z,4.22
2023-05-02T03:14:01.144Z,3.47
2023-05-02T03:18:54.779Z,4.10
2023-05-02T03:23:48.376Z,4.22
2023-05-02T03:28:41.855Z,3.50
2023-05-02T03:33:35.126Z,4.32
2023-05-02T03:38:30.871Z,3.28
2023-05-02T03:43:29.054Z,3.88
2023-05-02T03:48:23.279Z,3.10
2023-05-02T03:53:16.621Z,3.30
2023-05-02T03:58:18.018Z,3.45
2023-05-02T04:03:11.273Z,3.72
2023-05-02T04:08:07.893Z,2.90
2023-05-02T04:13:03.534Z,3.38
2023-05-02T04:18:02.143Z,3.53
2023-05-02T04:22:56.254Z,5.28
2023-05-02T04:27:49.870Z,5.13
2023-05-02T04:32:46.500Z,5.20
2023-05-02T04:37:39.927Z,4.45
2023-05-02T04:42:34.314Z,5.18
2023-05-02T04:47:47.706Z,4.78
2023-05-02T04:52:41.566Z,4.82
2023-05-02T04:57:35.180Z,5.25
2023-05-02T05:02:29.794Z,4.90
2023-05-02T05:07:26.125Z,4.15
2023-05-02T05:12:21.218Z,4.55
2023-05-02T05:17:14.693Z,4.45
2023-05-02T05:22:08.488Z,4.15
2023-05-02T05:27:01.728Z,4.60
2023-05-02T05:31:54.728Z,4.25
2023-05-02T05:36:49.160Z,4.93
2023-05-02T05:41:44.736Z,7.22
2023-05-02T05:46:38.556Z,8.32
2023-05-02T05:51:34.400Z,9.32
2023-05-02T05:56:28.706Z,8.68
2023-05-02T06:01:32.923Z,8.68
2023-05-02T06:06:28.009Z,6.10
2023-05-02T06:11:21.670Z,5.78
2023-05-02T06:16:15.296Z,6.25
2023-05-02T06:21:08.117Z,4.65
2023-05-02T06:26:02.426Z,5.38
2023-05-02T06:31:03.186Z,4.95
2023-05-02T06:35:56.270Z,5.05
2023-05-02T06:40:49.878Z,4.65
2023-05-02T06:45:43.472Z,4.45
2023-05-02T06:50:37.509Z,4.82
2023-05-02T06:55:31.242Z,4.97
2023-05-02T07:00:25.030Z,4.53
2023-05-02T07:05:18.494Z,4.55
2023-05-02T07:10:12.855Z,4.85
2023-05-02T07:15:10.788Z,4.43
2023-05-02T07:20:05.296Z,4.78
2023-05-02T07:25:02.413Z,4.63
2023-05-02T07:29:55.996Z,4.78
2023-05-02T07:34:49.574Z,5.10
2023-05-02T07:39:42.766Z,5.05
2023-05-02T07:44:37.509Z,5.50
2023-05-02T07:49:31.908Z,4.40
2023-05-02T07:54:26.486Z,4.55
2023-05-02T07:59:19.136Z,3.95
2023-05-02T08:04:13.512Z,4.35
2023-05-02T08:09:06.805Z,4.13
2023-05-02T08:14:00.050Z,4.70
2023-05-02T08:18:54.101Z,4.20
2023-05-02T08:23:47.819Z,4.55
2023-05-02T08:28:40.468Z,4.20
2023-05-02T08:33:33.614Z,4.72
2023-05-02T08:38:26.815Z,4.15
2023-05-02T08:43:19.802Z,3.95
2023-05-02T08:48:17.105Z,4.38
2023-05-02T08:53:11.358Z,5.10
2023-05-02T08:58:05.220Z,4.70
2023-05-02T09:03:13.456Z,4.03
2023-05-02T09:08:08.135Z,3.90
2023-05-02T09:13:37.112Z,4.47
2023-05-02T09:18:32.512Z,4.70
2023-05-02T09:23:45.209Z,3.97
2023-05-02T09:28:44.155Z,5.07
2023-05-02T09:33:38.435Z,3.85
2023-05-02T09:38:31.495Z,4.10
2023-05-02T09:43:24.862Z,4.20
2023-05-02T09:48:18.377Z,4.28
2023-05-02T09:53:12.125Z,4.10
2023-05-02T09:58:07.368Z,4.70
2023-05-02T10:03:01.638Z,4.43
2023-05-02T10:07:54.979Z,5.20
2023-05-02T10:12:49.238Z,4.55
2023-05-02T10:17:45.683Z,5.75
2023-05-02T10:22:39.004Z,5.50
2023-05-02T10:27:33.348Z,4.43
2023-05-02T10:32:29.541Z,5.68
2023-05-02T10:37:24.485Z,5.65
2023-05-02T10:42:18.808Z,4.70
2023-05-02T10:47:24.430Z,3.95
2023-05-02T10:52:28.240Z,4.32
2023-05-02T10:57:22.405Z,4.38
2023-05-02T11:02:25.687Z,3.33
2023-05-02T11:07:19.843Z,4.22
2023-05-02T11:12:50.879Z,4.68
2023-05-02T11:18:03.090Z,4.57
2023-05-02T11:22:58.947Z,4.50
2023-05-02T11:27:52.150Z,4.82
2023-05-02T11:33:04.999Z,5.03
2023-05-02T11:38:03.671Z,5.72
2023-05-02T11:42:59.172Z,4.57
2023-05-02T11:47:52.859Z,6.00
2023-05-02T11:52:46.836Z,6.63
2023-05-02T11:57:40.504Z,4.93
2023-05-02T12:02:44.056Z,5.38
2023-05-02T12:07:41.147Z,5.30
2023-05-02T12:12:34.626Z,5.78
2023-05-02T12:17:27.577Z,5.05
2023-05-02T12:22:20.935Z,5.32
2023-05-02T12:27:15.387Z,5.85
2023-05-02T12:32:09.563Z,5.65
2023-05-02T12:37:05.038Z,5.13
2023-05-02T12:41:58.704Z,4.85
2023-05-02T12:47:03.275Z,5.38
2023-05-02T12:51:57.045Z,4.72
2023-05-02T12:56:52.677Z,11.07
2023-05-02T13:01:45.455Z,7.00
2023-05-02T13:06:38.736Z,5.10
2023-05-02T13:11:32.981Z,4.95
2023-05-02T13:16:27.007Z,4.25
2023-05-02T13:21:20.321Z,4.63
2023-05-02T13:26:14.034Z,4.63
2023-05-02T13:31:08.241Z,4.53
2023-05-02T13:36:02.080Z,3.47
2023-05-02T13:40:55.921Z,4.90
2023-05-02T13:45:49.635Z,4.53
2023-05-02T13:50:43.105Z,3.40
2023-05-02T13:55:36.219Z,3.30
2023-05-02T14:00:29.376Z,3.80
2023-05-02T14:05:23.043Z,3.25
2023-05-02T14:10:17.361Z,3.35
2023-05-02T14:15:12.200Z,3.30
2023-05-02T14:20:06.590Z,3.00
2023-05-02T14:24:59.576Z,3.30
2023-05-02T14:29:52.203Z,3.47
2023-05-02T14:34:46.820Z,2.80
2023-05-02T14:39:43.313Z,3.00
2023-05-02T14:44:36.133Z,3.55
2023-05-02T14:49:29.299Z,3.20
2023-05-02T14:54:27.665Z,3.42
2023-05-02T14:59:20.784Z,2.97
2023-05-02T15:04:14.212Z,3.00
2023-05-02T15:09:07.742Z,2.70
2023-05-02T15:14:01.920Z,3.00
2023-05-02T15:18:55.623Z,2.40
2023-05-02T15:23:49.278Z,2.30
2023-05-02T15:28:43.394Z,1.90
2023-05-02T15:33:36.591Z,1.77
2023-05-02T15:38:29.743Z,2.58
2023-05-02T15:43:23.551Z,2.20
2023-05-02T15:48:16.740Z,1.90
2023-05-02T15:53:09.080Z,2.72
2023-05-02T15:58:03.269Z,2.60
2023-05-02T16:02:57.300Z,3.25
2023-05-02T16:07:50.124Z,3.50
2023-05-02T16:12:43.924Z,3.20
2023-05-02T16:17:37.424Z,2.22
2023-05-02T16:22:30.812Z,2.85
2023-05-02T16:27:25.369Z,3.20
2023-05-02T16:32:18.931Z,2.90
2023-05-02T16:37:12.401Z,3.00
2023-05-02T16:42:06.003Z,2.90
2023-05-02T16:46:58.461Z,2.75
2023-05-02T16:51:54.477Z,2.47
2023-05-02T16:56:47.811Z,2.70
2023-05-02T17:01:40.667Z,3.30
2023-05-02T17:06:35.002Z,2.90
2023-05-02T17:11:29.022Z,2.60
2023-05-02T17:16:22.978Z,3.10
2023-05-02T17:21:17.193Z,4.30
2023-05-02T17:26:16.970Z,2.58
2023-05-02T17:31:11.009Z,2.83
2023-05-02T17:36:05.451Z,3.13
2023-05-02T17:40:59.506Z,3.60
2023-05-02T17:45:53.141Z,3.42
2023-05-02T17:50:45.856Z,3.08
2023-05-02T17:55:40.981Z,3.47
2023-05-02T18:00:35.017Z,3.78
2023-05-02T18:05:28.584Z,2.90
2023-05-02T18:10:21.673Z,3.35
2023-05-02T18:15:15.264Z,3.63
2023-05-02T18:20:11.264Z,3.33
2023-05-02T18:25:05.851Z,3.28
2023-05-02T18:29:58.978Z,2.72
2023-05-02T18:34:52.632Z,3.30
2023-05-02T18:39:46.128Z,3.75
2023-05-02T18:44:39.759Z,3.70
2023-05-02T18:49:33.156Z,4.50
2023-05-02T18:54:28.312Z,5.32
2023-05-02T18:59:22.492Z,4.47
2023-05-02T19:04:16.026Z,3.90
2023-05-02T19:09:09.198Z,3.90
2023-05-02T19:14:04.189Z,4.10
2023-05-02T19:18:58.341Z,3.75
2023-05-02T19:23:53.214Z,3.70
2023-05-02T19:28:46.771Z,4.30
2023-05-02T19:33:41.114Z,3.55
2023-05-02T19:38:34.991Z,4.03
2023-05-02T19:43:29.015Z,3.60
2023-05-02T19:48:23.421Z,3.10
2023-05-02T19:53:15.929Z,3.50
2023-05-02T19:58:11.533Z,3.00
2023-05-02T20:03:05.620Z,2.72
2023-05-02T20:08:00.390Z,4.25
2023-05-02T20:12:53.964Z,4.05
2023-05-02T20:17:47.672Z,3.47
2023-05-02T20:22:41.948Z,4.20
2023-05-02T20:27:35.309Z,4.22
2023-05-02T20:32:28.988Z,3.67
2023-05-02T20:37:22.273Z,4.13
2023-05-02T20:42:23.650Z,4.13
2023-05-02T20:47:17.537Z,3.90
2023-05-02T20:52:11.109Z,3.90
2023-05-02T20:57:04.540Z,4.35
2023-05-02T21:01:58.740Z,4.53
2023-05-02T21:06:58.324Z,4.20
2023-05-02T21:11:51.360Z,4.50
2023-05-02T21:16:44.079Z,4.22
2023-05-02T21:21:38.260Z,3.50
2023-05-02T21:26:32.264Z,4.00
2023-05-02T21:31:25.467Z,3.10
2023-05-02T21:36:19.047Z,2.90
2023-05-02T21:41:12.448Z,2.58
2023-05-02T21:46:09.092Z,2.15
2023-05-02T21:51:01.949Z,2.63
2023-05-02T21:55:55.615Z,3.20
2023-05-02T22:00:50.262Z,3.42
2023-05-02T22:05:43.673Z,2.40
2023-05-02T22:10:57.756Z,2.28
2023-05-02T22:15:52.129Z,2.10
2023-05-02T22:20:45.565Z,2.10
2023-05-02T22:25:41.943Z,2.05
2023-05-02T22:30:35.491Z,2.25
2023-05-02T22:35:28.999Z,2.30
2023-05-02T22:40:21.970Z,2.22
2023-05-02T22:45:15.273Z,2.15
2023-05-02T22:50:11.190Z,1.73
2023-05-02T22:55:09.902Z,2.22
2023-05-02T23:00:05.982Z,1.87
2023-05-02T23:04:59.780Z,2.13
2023-05-02T23:09:53.075Z,1.80
2023-05-02T23:14:46.860Z,2.10
2023-05-02T23:19:40.802Z,1.92
2023-05-02T23:24:34.911Z,1.70
2023-05-02T23:29:29.112Z,1.25
2023-05-02T23:34:22.581Z,1.42
2023-05-02T23:39:15.487Z,1.65
2023-05-02T23:44:08.547Z,1.45
2023-05-02T23:49:01.755Z,1.70
2023-05-02T23:53:55.512Z,1.58
2023-05-02T23:58:49.612Z,1.70
